Ansley Park, SC

6:58 AM EST on January 23, 2017 (GMT -0500)
| | Change Station
Active Advisory: Lake Wind Advisory

Elev -9999 ft 0.00 °N, 0.00 °E | Updated 8 minutes ago

Rain
Rain
°F
Feels Like °F
N
Wind Variable Wind from North
Gusts mph

Today
High -- | Low -- °F
--% Chance of Precip.
Yesterday
High -- | Low -- °F
Precip. -- in
Pressure 29.27 in
Visibility 10.0 miles
Clouds Overcast 6000 ft
Dew Point Not available.
Humidity Not available.
Rainfall --
Snow Depth Not available.
7:28 AM 5:49 PM
Waning Crescent, 19% visible
METAR KAIK 231155Z AUTO 21005KT 10SM DZ OVC060 08/08 A2927 RMK AO2
Pressure 29.27 in
Visibility 10.0 miles
Clouds Overcast 6000 ft
Dew Point Not available.
Humidity Not available.
Rainfall --
Snow Depth Not available.
7:28 AM 5:49 PM
Waning Crescent, 19% visible
METAR KAIK 231155Z AUTO 21005KT 10SM DZ OVC060 08/08 A2927 RMK AO2

Get Your Daily Forecast Email!

Thanks for signing up!

Be on the lookout for a verification email in your inbox.

You'll start receiving the daily forecast at 8 AM.

×

10-Day Weather Forecast

Almanac

Astronomy

Jan. 23, 2017 Rise Set
Actual Time
Civil Twilight
Nautical Twilight
Astronomical Twilight
Moon
Length of Visible Light
Length of Day
Tomorrow will be .
, % of the Moon is Illuminated

Today's Extremes

State Highs State Lows

Community

WunderPhotos

Upload Photos

1,962,540 photos uploaded!

WunderBlog® & News

Nearby

Air Quality

  Air Quality AQ Index Pollutant
Not available.

Snow Depth

Station Depth Elevation

Earthquake Activity

City Distance Mag. Time & Date
Minimum magnitude displayed is 2.5.

Coastal Water Temperatures

Place Temperature

Stations

Nearby Weather Stations

Station Location Temp. Windchill Dew Point Humidity Wind Precip. Elev Updated Type
                   

Watches & Warnings

Lake Wind Advisory
Issued: 2:37 AM EST Jan. 23, 2017 – National Weather Service

... Lake Wind Advisory now in effect until 4 am EST Tuesday...

* timing... through 400 am Tuesday.

* Winds... southwest to west 15 to 25 knots today... and west to
northwest 15 to 25 knots tonight.

* Impacts... hazardous conditions will occur on area lakes.

Precautionary/preparedness actions...

A lake Wind Advisory indicates that winds will cause rough chop
on area lakes. Small boats will be especially prone to capsizing.